createdAt,value
2022-07-30T00:00:11.493Z,71.51
2022-07-30T00:01:11.512Z,71.32
2022-07-30T00:02:11.423Z,69.06
2022-07-30T00:03:11.401Z,70.82
2022-07-30T00:04:11.377Z,70.10
2022-07-30T00:05:11.380Z,71.01
2022-07-30T00:06:11.333Z,67.87
2022-07-30T00:07:11.309Z,67.29
2022-07-30T00:08:11.287Z,67.13
2022-07-30T00:09:11.264Z,69.96
2022-07-30T00:10:11.269Z,69.29
2022-07-30T00:11:11.218Z,68.76
2022-07-30T00:12:11.194Z,68.81
2022-07-30T00:13:14.064Z,67.24
2022-07-30T00:14:11.152Z,69.01
2022-07-30T00:15:11.157Z,68.73
2022-07-30T00:16:11.173Z,67.04
2022-07-30T00:17:11.126Z,69.68
2022-07-30T00:18:11.168Z,71.90
2022-07-30T00:19:11.041Z,65.81
2022-07-30T00:20:11.358Z,68.84
2022-07-30T00:21:11.176Z,71.19
2022-07-30T00:22:11.975Z,70.31
2022-07-30T00:23:10.955Z,69.72
2022-07-30T00:24:10.935Z,67.84
2022-07-30T00:25:10.937Z,68.87
2022-07-30T00:26:10.890Z,70.65
2022-07-30T00:27:10.862Z,69.61
2022-07-30T00:28:10.863Z,68.63
2022-07-30T00:29:10.823Z,70.92
2022-07-30T00:30:10.823Z,68.06
2022-07-30T00:31:10.829Z,71.86
2022-07-30T00:32:10.758Z,71.94
2022-07-30T00:33:10.729Z,70.78
2022-07-30T00:34:10.709Z,70.63
2022-07-30T00:35:10.713Z,66.69
2022-07-30T00:36:10.668Z,69.60
2022-07-30T00:37:10.644Z,69.83
2022-07-30T00:38:10.623Z,71.57
2022-07-30T00:39:10.601Z,68.48
2022-07-30T00:40:10.602Z,71.05
2022-07-30T00:41:10.553Z,70.24
2022-07-30T00:42:10.529Z,69.98
2022-07-30T00:43:10.506Z,70.71
2022-07-30T00:44:10.487Z,67.16
2022-07-30T00:45:10.496Z,67.25
2022-07-30T00:46:10.565Z,69.34
2022-07-30T00:47:10.422Z,69.63
2022-07-30T00:48:10.396Z,68.95
2022-07-30T00:49:10.429Z,68.29
2022-07-30T00:50:10.380Z,68.48
2022-07-30T00:51:10.329Z,70.34
2022-07-30T00:52:10.305Z,70.70
2022-07-30T00:53:10.281Z,71.02
2022-07-30T00:54:10.263Z,69.97
2022-07-30T00:55:10.271Z,71.06
2022-07-30T00:56:10.219Z,70.28
2022-07-30T00:57:10.198Z,68.31
2022-07-30T00:58:10.172Z,64.88
2022-07-30T00:59:10.155Z,69.45
2022-07-30T01:00:10.157Z,69.82
2022-07-30T01:01:10.176Z,69.69
2022-07-30T01:02:10.173Z,70.14
2022-07-30T01:03:10.065Z,65.91
2022-07-30T01:04:10.123Z,65.24
2022-07-30T01:05:10.049Z,68.58
2022-07-30T01:06:14.545Z,66.38
2022-07-30T01:07:09.977Z,66.91
2022-07-30T01:08:10.039Z,70.83
2022-07-30T01:09:09.937Z,69.77
2022-07-30T01:10:09.948Z,66.56
2022-07-30T01:11:09.895Z,68.87
2022-07-30T01:12:09.869Z,70.86
2022-07-30T01:13:09.862Z,69.41
2022-07-30T01:14:09.832Z,69.10
2022-07-30T01:15:09.808Z,70.52
2022-07-30T01:16:09.856Z,70.32
2022-07-30T01:17:09.764Z,71.26
2022-07-30T01:18:09.743Z,69.13
2022-07-30T01:19:09.732Z,69.88
2022-07-30T01:20:09.729Z,69.53
2022-07-30T01:21:09.702Z,70.85
2022-07-30T01:22:09.658Z,68.32
2022-07-30T01:23:09.632Z,68.82
2022-07-30T01:24:09.614Z,70.30
2022-07-30T01:25:09.593Z,67.70
2022-07-30T01:26:09.595Z,67.49
2022-07-30T01:27:09.545Z,66.82
2022-07-30T01:28:09.518Z,66.50
2022-07-30T01:29:09.502Z,66.45
2022-07-30T01:30:09.506Z,70.33
2022-07-30T01:31:09.487Z,66.45
2022-07-30T01:32:09.430Z,69.29
2022-07-30T01:33:09.409Z,68.16
2022-07-30T01:34:09.388Z,66.53
2022-07-30T01:35:09.366Z,68.74
2022-07-30T01:36:09.373Z,66.95
2022-07-30T01:37:09.321Z,68.83
2022-07-30T01:38:09.302Z,69.23
2022-07-30T01:39:09.279Z,69.23
2022-07-30T01:40:09.289Z,69.45
2022-07-30T01:41:09.234Z,70.37
2022-07-30T01:42:09.250Z,68.62
2022-07-30T01:43:09.189Z,71.67
2022-07-30T01:44:09.167Z,68.42
2022-07-30T01:45:09.151Z,68.37
2022-07-30T01:46:09.231Z,70.33
2022-07-30T01:47:09.100Z,69.87
2022-07-30T01:48:09.076Z,71.25
2022-07-30T01:49:09.074Z,68.01
2022-07-30T01:50:11.129Z,69.04
2022-07-30T01:51:09.037Z,70.17
2022-07-30T01:52:08.989Z,66.76
2022-07-30T01:53:08.967Z,70.09
2022-07-30T01:54:08.945Z,70.35
2022-07-30T01:55:16.965Z,69.25
2022-07-30T01:56:10.719Z,67.99
2022-07-30T01:57:08.876Z,67.90
2022-07-30T01:58:08.853Z,69.81
2022-07-30T01:59:09.519Z,69.99
2022-07-30T02:00:08.811Z,69.97
2022-07-30T02:01:08.866Z,70.58
2022-07-30T02:02:08.798Z,69.58
2022-07-30T02:03:08.856Z,71.78
2022-07-30T02:04:08.726Z,69.21
2022-07-30T02:05:08.706Z,69.38
2022-07-30T02:06:08.731Z,70.75
2022-07-30T02:07:08.662Z,70.46
2022-07-30T02:08:08.645Z,71.20
2022-07-30T02:09:10.703Z,71.74
2022-07-30T02:10:08.604Z,68.73
2022-07-30T02:11:08.606Z,67.99
2022-07-30T02:12:08.558Z,67.86
2022-07-30T02:13:08.534Z,69.32
2022-07-30T02:14:08.510Z,67.10
2022-07-30T02:15:08.488Z,66.74
2022-07-30T02:16:08.544Z,69.61
2022-07-30T02:17:08.444Z,68.23
2022-07-30T02:18:09.423Z,70.72
2022-07-30T02:19:08.400Z,71.22
2022-07-30T02:20:10.096Z,68.63
2022-07-30T02:21:11.446Z,69.06
2022-07-30T02:22:08.546Z,73.06
2022-07-30T02:23:08.315Z,69.00
2022-07-30T02:24:08.294Z,70.76
2022-07-30T02:25:08.269Z,70.95
2022-07-30T02:26:08.273Z,71.41
2022-07-30T02:27:08.227Z,70.13
2022-07-30T02:28:08.201Z,70.81
2022-07-30T02:29:11.235Z,68.81
2022-07-30T02:30:09.162Z,70.15
2022-07-30T02:31:17.656Z,69.50
2022-07-30T02:32:09.113Z,67.23
2022-07-30T02:33:08.091Z,70.38
2022-07-30T02:34:08.072Z,69.46
2022-07-30T02:35:08.049Z,70.44
2022-07-30T02:36:11.341Z,70.48
2022-07-30T02:37:08.007Z,68.45
2022-07-30T02:38:07.980Z,73.45
2022-07-30T02:39:07.956Z,70.83
2022-07-30T02:40:07.932Z,67.22
2022-07-30T02:41:07.939Z,69.57
2022-07-30T02:42:07.889Z,72.24
2022-07-30T02:43:07.865Z,72.01
2022-07-30T02:44:07.845Z,69.60
2022-07-30T02:45:07.824Z,71.76
2022-07-30T02:46:07.824Z,69.90
2022-07-30T02:47:07.857Z,65.53
2022-07-30T02:48:07.759Z,70.13
2022-07-30T02:49:07.824Z,68.52
2022-07-30T02:50:07.711Z,70.75
2022-07-30T02:51:07.716Z,69.29
2022-07-30T02:52:07.667Z,70.92
2022-07-30T02:53:07.642Z,68.58
2022-07-30T02:54:07.619Z,70.71
2022-07-30T02:55:07.604Z,72.24
2022-07-30T02:56:07.607Z,68.64
2022-07-30T02:57:07.554Z,68.31
2022-07-30T02:58:07.539Z,66.34
2022-07-30T02:59:07.511Z,69.58
2022-07-30T03:00:07.487Z,71.81
2022-07-30T03:01:07.606Z,68.89
2022-07-30T03:02:07.479Z,70.87
2022-07-30T03:03:07.426Z,71.75
2022-07-30T03:04:07.399Z,67.69
2022-07-30T03:05:07.376Z,68.48
2022-07-30T03:06:07.401Z,68.36
2022-07-30T03:07:08.591Z,68.07
2022-07-30T03:08:08.341Z,68.73
2022-07-30T03:09:07.292Z,70.49
2022-07-30T03:10:07.269Z,69.99
2022-07-30T03:11:07.270Z,71.26
2022-07-30T03:12:07.224Z,72.03
2022-07-30T03:13:07.204Z,71.05
2022-07-30T03:14:07.176Z,70.45
2022-07-30T03:15:07.157Z,72.02
2022-07-30T03:16:07.188Z,71.76
2022-07-30T03:17:07.114Z,68.93
2022-07-30T03:18:07.093Z,71.35
2022-07-30T03:19:07.068Z,67.68
2022-07-30T03:20:07.047Z,71.04
2022-07-30T03:21:07.057Z,69.98
2022-07-30T03:22:07.003Z,71.30
2022-07-30T03:23:06.978Z,71.68
2022-07-30T03:24:06.959Z,71.62
2022-07-30T03:25:06.934Z,69.89
2022-07-30T03:26:06.938Z,72.28
2022-07-30T03:27:06.887Z,71.54
2022-07-30T03:28:06.872Z,71.83
2022-07-30T03:29:06.842Z,70.79
2022-07-30T03:30:06.822Z,70.08
2022-07-30T03:31:06.858Z,70.57
2022-07-30T03:32:06.819Z,72.56
2022-07-30T03:33:06.755Z,72.54
2022-07-30T03:34:06.734Z,71.75
2022-07-30T03:35:08.844Z,71.30
2022-07-30T03:36:07.711Z,71.05
2022-07-30T03:37:06.680Z,71.47
2022-07-30T03:38:06.642Z,71.35
2022-07-30T03:39:06.620Z,70.05
2022-07-30T03:40:06.597Z,70.53
2022-07-30T03:41:06.610Z,72.13
2022-07-30T03:42:06.555Z,71.11
2022-07-30T03:43:18.557Z,72.66
2022-07-30T03:44:07.513Z,70.22
2022-07-30T03:45:06.490Z,72.17
2022-07-30T03:46:06.559Z,71.80
2022-07-30T03:47:06.498Z,71.96
2022-07-30T03:48:06.421Z,73.07
2022-07-30T03:49:06.482Z,71.11
2022-07-30T03:50:06.391Z,68.53
2022-07-30T03:51:06.357Z,72.53
2022-07-30T03:52:06.344Z,71.28
2022-07-30T03:53:06.317Z,71.54
2022-07-30T03:54:08.453Z,70.90
2022-07-30T03:55:07.273Z,69.21
2022-07-30T03:56:06.281Z,72.15
2022-07-30T03:57:06.228Z,73.10
2022-07-30T03:58:06.208Z,72.00
2022-07-30T03:59:06.184Z,71.97
2022-07-30T04:00:06.165Z,71.59
2022-07-30T04:01:06.166Z,71.66
2022-07-30T04:02:07.427Z,71.49
2022-07-30T04:03:06.095Z,70.43
2022-07-30T04:04:06.140Z,72.01
2022-07-30T04:05:06.048Z,71.40
2022-07-30T04:06:06.057Z,72.70
2022-07-30T04:07:06.004Z,70.55
2022-07-30T04:08:05.984Z,72.12
2022-07-30T04:09:05.959Z,71.65
2022-07-30T04:10:05.938Z,72.16
2022-07-30T04:11:05.949Z,71.19
2022-07-30T04:12:05.896Z,72.07
2022-07-30T04:13:09.441Z,70.81
2022-07-30T04:14:06.876Z,71.94
2022-07-30T04:16:35.555Z,72.12
2022-07-30T04:16:38.956Z,69.89
2022-07-30T04:17:07.826Z,72.18
2022-07-30T04:18:05.767Z,71.83
2022-07-30T04:19:05.767Z,72.54
2022-07-30T04:20:05.715Z,73.10
2022-07-30T04:21:05.719Z,72.64
2022-07-30T04:22:05.669Z,73.14
2022-07-30T04:23:05.647Z,71.34
2022-07-30T04:24:05.866Z,72.24
2022-07-30T04:25:05.601Z,71.88
2022-07-30T04:26:05.606Z,69.77
2022-07-30T04:27:05.562Z,73.25
2022-07-30T04:28:05.538Z,71.42
2022-07-30T04:29:05.521Z,72.49
2022-07-30T04:30:05.489Z,68.48
2022-07-30T04:31:05.552Z,72.73
2022-07-30T04:32:05.448Z,70.86
2022-07-30T04:33:05.430Z,70.39
2022-07-30T04:34:05.405Z,72.21
2022-07-30T04:35:05.380Z,72.33
2022-07-30T04:36:05.388Z,72.01
2022-07-30T04:37:05.338Z,73.59
2022-07-30T04:38:05.316Z,71.67
2022-07-30T04:39:05.292Z,73.05
2022-07-30T04:40:05.272Z,73.20
2022-07-30T04:41:05.273Z,71.79
2022-07-30T04:42:05.226Z,73.60
2022-07-30T04:43:05.206Z,73.70
2022-07-30T04:44:05.186Z,73.44
2022-07-30T04:45:05.161Z,73.58
2022-07-30T04:46:05.209Z,72.68
2022-07-30T04:47:05.118Z,73.39
2022-07-30T04:48:05.095Z,73.27
2022-07-30T04:49:05.153Z,70.22
2022-07-30T04:50:05.049Z,71.16
2022-07-30T04:51:05.058Z,70.84
2022-07-30T04:52:05.011Z,71.78
2022-07-30T04:53:04.986Z,72.58
2022-07-30T04:54:04.967Z,69.79
2022-07-30T04:55:04.941Z,73.31
2022-07-30T04:56:04.945Z,73.51
2022-07-30T04:57:05.129Z,72.89
2022-07-30T04:58:04.892Z,72.60
2022-07-30T04:59:04.849Z,71.71
2022-07-30T05:00:04.829Z,71.26
2022-07-30T05:01:04.828Z,73.93
2022-07-30T05:02:04.856Z,73.30
2022-07-30T05:03:04.763Z,69.41
2022-07-30T05:04:04.736Z,71.11
2022-07-30T05:05:04.800Z,72.44
2022-07-30T05:06:04.719Z,73.27
2022-07-30T05:07:05.094Z,72.82
2022-07-30T05:08:04.644Z,72.71
2022-07-30T05:09:04.626Z,70.93
2022-07-30T05:10:04.597Z,72.54
2022-07-30T05:11:04.600Z,70.17
2022-07-30T05:12:04.551Z,70.49
2022-07-30T05:13:04.535Z,71.34
2022-07-30T05:14:04.505Z,74.65
2022-07-30T05:15:04.487Z,70.81
2022-07-30T05:16:04.572Z,72.70
2022-07-30T05:17:04.626Z,70.23
2022-07-30T05:18:04.984Z,72.45
2022-07-30T05:19:07.605Z,71.44
2022-07-30T05:20:05.383Z,73.17
2022-07-30T05:21:04.385Z,72.84
2022-07-30T05:22:06.746Z,72.29
2022-07-30T05:23:05.312Z,72.14
2022-07-30T05:24:04.293Z,70.72
2022-07-30T05:25:04.267Z,73.93
2022-07-30T05:26:04.277Z,73.40
2022-07-30T05:27:04.437Z,71.75
2022-07-30T05:28:04.203Z,73.47
2022-07-30T05:29:07.246Z,72.19
2022-07-30T05:30:04.162Z,74.57
2022-07-30T05:31:08.199Z,73.57
2022-07-30T05:32:04.115Z,72.20
2022-07-30T05:33:12.203Z,73.84
2022-07-30T05:34:05.073Z,71.26
2022-07-30T05:35:04.048Z,73.13
2022-07-30T05:36:04.055Z,73.75
2022-07-30T05:37:04.368Z,73.15
2022-07-30T05:38:03.985Z,72.91
2022-07-30T05:39:03.963Z,71.90
2022-07-30T05:40:03.973Z,70.48
2022-07-30T05:41:03.944Z,71.10
2022-07-30T05:42:04.900Z,70.50
2022-07-30T05:43:03.877Z,72.65
2022-07-30T05:44:03.869Z,72.97
2022-07-30T05:45:03.835Z,70.25
2022-07-30T05:46:03.884Z,73.42
2022-07-30T05:47:03.958Z,69.67
2022-07-30T05:48:03.762Z,71.18
2022-07-30T05:49:04.888Z,72.27
2022-07-30T05:50:05.507Z,72.04
2022-07-30T05:51:04.733Z,72.54
2022-07-30T05:52:03.679Z,71.74
2022-07-30T05:53:03.661Z,71.81
2022-07-30T05:54:03.639Z,71.46
2022-07-30T05:55:03.616Z,71.56
2022-07-30T05:56:03.619Z,72.06
2022-07-30T05:57:04.029Z,70.88
2022-07-30T05:58:04.551Z,72.52
2022-07-30T05:59:03.534Z,72.37
2022-07-30T06:00:03.511Z,71.41
2022-07-30T06:01:03.509Z,71.16
2022-07-30T06:02:03.623Z,72.38
2022-07-30T06:03:03.453Z,72.66
2022-07-30T06:04:03.450Z,72.98
2022-07-30T06:05:03.519Z,73.32
2022-07-30T06:06:03.410Z,73.24
2022-07-30T06:07:03.755Z,72.41
2022-07-30T06:08:03.337Z,72.31
2022-07-30T06:09:03.314Z,72.01
2022-07-30T06:10:03.295Z,71.61
2022-07-30T06:11:03.310Z,74.69
2022-07-30T06:12:03.247Z,72.10
2022-07-30T06:13:03.225Z,72.49
2022-07-30T06:14:03.208Z,72.12
2022-07-30T06:15:03.187Z,71.78
2022-07-30T06:16:03.212Z,70.19
2022-07-30T06:17:03.564Z,72.48
2022-07-30T06:18:03.120Z,73.92
2022-07-30T06:19:03.530Z,72.27
2022-07-30T06:20:03.065Z,70.08
2022-07-30T06:21:04.079Z,73.82
2022-07-30T06:22:06.678Z,73.46
2022-07-30T06:23:03.004Z,72.28
2022-07-30T06:24:02.981Z,72.41
2022-07-30T06:25:02.961Z,74.31
2022-07-30T06:26:02.967Z,72.27
2022-07-30T06:27:03.477Z,72.88
2022-07-30T06:28:15.645Z,72.85
2022-07-30T06:29:04.875Z,71.08
2022-07-30T06:30:02.857Z,72.60
2022-07-30T06:31:02.910Z,72.33
2022-07-30T06:32:02.812Z,72.04
2022-07-30T06:33:02.794Z,72.07
2022-07-30T06:34:02.778Z,71.85
2022-07-30T06:35:05.000Z,73.00
2022-07-30T06:36:03.748Z,71.79
2022-07-30T06:37:03.129Z,73.84
2022-07-30T06:38:07.291Z,73.04
2022-07-30T06:39:03.657Z,74.36
2022-07-30T06:40:02.639Z,72.56
2022-07-30T06:41:04.484Z,72.18
2022-07-30T06:42:02.590Z,73.20
2022-07-30T06:43:02.567Z,74.10
2022-07-30T06:44:02.554Z,72.91
2022-07-30T06:45:02.523Z,74.04
2022-07-30T06:46:02.573Z,74.48
2022-07-30T06:47:07.475Z,70.99
2022-07-30T06:48:04.449Z,72.43
2022-07-30T06:49:02.501Z,73.11
2022-07-30T06:50:02.410Z,72.44
2022-07-30T06:51:02.392Z,73.61
2022-07-30T06:52:02.397Z,72.25
2022-07-30T06:53:02.346Z,71.08
2022-07-30T06:54:02.332Z,71.95
2022-07-30T06:55:02.305Z,73.44
2022-07-30T06:56:02.287Z,72.91
2022-07-30T06:57:02.682Z,72.44
2022-07-30T06:58:02.239Z,72.79
2022-07-30T06:59:02.222Z,73.16
2022-07-30T07:00:02.202Z,74.25
2022-07-30T07:01:02.304Z,72.65
2022-07-30T07:02:02.187Z,73.67
2022-07-30T07:03:02.141Z,72.82
2022-07-30T07:04:02.154Z,73.86
2022-07-30T07:05:02.093Z,72.47
2022-07-30T07:06:02.073Z,74.55
2022-07-30T07:07:12.198Z,74.01
2022-07-30T07:08:03.033Z,73.69
2022-07-30T07:09:02.016Z,72.18
2022-07-30T07:10:01.990Z,72.17
2022-07-30T07:11:01.973Z,74.77
2022-07-30T07:12:01.984Z,71.61
2022-07-30T07:13:01.941Z,71.93
2022-07-30T07:14:04.659Z,71.66
2022-07-30T07:15:02.885Z,71.56
2022-07-30T07:16:01.870Z,71.85
2022-07-30T07:17:02.259Z,74.86
2022-07-30T07:18:02.361Z,72.58
2022-07-30T07:19:01.799Z,74.17
2022-07-30T07:20:02.782Z,72.92
2022-07-30T07:21:02.765Z,71.88
2022-07-30T07:22:01.768Z,73.00
2022-07-30T07:23:06.574Z,70.66
2022-07-30T07:24:03.699Z,72.79
2022-07-30T07:25:01.691Z,73.41
2022-07-30T07:26:01.660Z,72.19
2022-07-30T07:27:02.045Z,72.62
2022-07-30T07:28:12.039Z,72.45
2022-07-30T07:29:05.221Z,73.70
2022-07-30T07:30:05.525Z,71.07
2022-07-30T07:31:01.608Z,71.62
2022-07-30T07:32:05.707Z,72.97
2022-07-30T07:33:02.517Z,72.35
2022-07-30T07:34:01.509Z,73.14
2022-07-30T07:35:01.494Z,73.70
2022-07-30T07:36:01.463Z,72.63
2022-07-30T07:37:01.752Z,72.28
2022-07-30T07:38:01.418Z,73.80
2022-07-30T07:39:02.401Z,72.38
2022-07-30T07:40:01.386Z,73.11
2022-07-30T07:41:01.362Z,71.84
2022-07-30T07:42:01.368Z,72.73
2022-07-30T07:43:01.320Z,72.67
2022-07-30T07:44:01.301Z,71.35
2022-07-30T07:45:01.285Z,71.89
2022-07-30T07:46:01.333Z,70.70
2022-07-30T07:47:01.606Z,73.15
2022-07-30T07:48:01.229Z,71.31
2022-07-30T07:49:01.288Z,71.76
2022-07-30T07:50:01.186Z,73.08
2022-07-30T07:51:01.167Z,72.65
2022-07-30T07:52:01.174Z,73.34
2022-07-30T07:53:01.132Z,71.72
2022-07-30T07:54:20.493Z,71.86
2022-07-30T07:55:03.347Z,72.16
2022-07-30T07:56:01.074Z,70.94
2022-07-30T07:57:01.298Z,71.49
2022-07-30T07:58:01.033Z,70.26
2022-07-30T07:59:01.018Z,69.48
2022-07-30T08:00:00.996Z,72.19
2022-07-30T08:01:01.019Z,71.53
2022-07-30T08:02:01.052Z,71.28
2022-07-30T08:03:00.943Z,69.81
2022-07-30T08:04:00.926Z,68.43
2022-07-30T08:05:00.906Z,68.89
2022-07-30T08:06:05.793Z,69.84
2022-07-30T08:07:02.356Z,69.07
2022-07-30T08:08:00.855Z,69.83
2022-07-30T08:09:00.833Z,67.52
2022-07-30T08:10:00.820Z,67.81
2022-07-30T08:11:00.801Z,69.16
2022-07-30T08:12:00.812Z,70.31
2022-07-30T08:13:00.764Z,69.18
2022-07-30T08:14:00.743Z,68.48
2022-07-30T08:15:00.732Z,67.47
2022-07-30T08:16:00.707Z,68.76
2022-07-30T08:17:01.277Z,68.70
2022-07-30T08:18:00.678Z,68.80
2022-07-30T08:19:01.458Z,69.33
2022-07-30T08:20:00.639Z,69.99
2022-07-30T08:21:00.621Z,67.09
2022-07-30T08:22:00.631Z,68.50
2022-07-30T08:23:00.588Z,68.16
2022-07-30T08:24:00.571Z,69.74
2022-07-30T08:25:00.554Z,69.24
2022-07-30T08:26:00.535Z,69.57
2022-07-30T08:27:00.806Z,69.36
2022-07-30T08:28:00.501Z,68.37
2022-07-30T08:29:00.481Z,69.41
2022-07-30T08:30:00.463Z,70.30
2022-07-30T08:31:02.411Z,69.91
2022-07-30T08:32:01.720Z,68.51
2022-07-30T08:33:00.414Z,69.77
2022-07-30T08:34:00.394Z,69.87
2022-07-30T08:35:00.376Z,69.29
2022-07-30T08:36:04.176Z,68.91
2022-07-30T08:37:00.363Z,69.39
2022-07-30T08:38:00.321Z,67.81
2022-07-30T08:39:00.306Z,68.08
2022-07-30T08:40:00.288Z,68.45
2022-07-30T08:41:00.268Z,68.17
2022-07-30T08:42:00.529Z,67.09
2022-07-30T08:43:00.237Z,66.60
2022-07-30T08:44:00.219Z,67.28
2022-07-30T08:45:00.221Z,65.73
2022-07-30T08:46:00.186Z,65.60
2022-07-30T08:47:00.450Z,66.43
2022-07-30T08:48:00.149Z,67.93
2022-07-30T08:49:05.369Z,69.70
2022-07-30T08:50:01.110Z,67.52
2022-07-30T08:51:00.095Z,67.17
2022-07-30T08:52:00.369Z,66.82
2022-07-30T08:53:00.068Z,66.61
2022-07-30T08:54:00.089Z,67.97
2022-07-30T08:55:00.022Z,67.64
2022-07-30T08:56:00.006Z,67.30
2022-07-30T08:57:00.014Z,69.50
2022-07-30T08:57:59.966Z,68.86
2022-07-30T08:58:59.949Z,66.37
2022-07-30T09:00:01.710Z,65.69
2022-07-30T09:00:59.918Z,69.61
2022-07-30T09:02:00.139Z,65.87
2022-07-30T09:02:59.880Z,67.26
2022-07-30T09:04:00.613Z,67.21
2022-07-30T09:04:59.844Z,67.64
2022-07-30T09:05:59.827Z,66.16
2022-07-30T09:07:00.029Z,66.36
2022-07-30T09:07:59.790Z,66.84
2022-07-30T09:08:59.771Z,68.59
2022-07-30T09:09:59.753Z,67.54
2022-07-30T09:10:59.740Z,67.57
2022-07-30T09:11:59.749Z,64.82
2022-07-30T09:12:59.700Z,66.24
2022-07-30T09:13:59.680Z,67.76
2022-07-30T09:14:59.666Z,64.44
2022-07-30T09:15:59.643Z,65.23
2022-07-30T09:17:00.715Z,66.19
2022-07-30T09:18:00.451Z,63.86
2022-07-30T09:18:59.596Z,65.27
2022-07-30T09:19:59.584Z,63.28
2022-07-30T09:20:59.563Z,64.81
2022-07-30T09:21:59.566Z,65.32
2022-07-30T09:22:59.521Z,65.99
2022-07-30T09:23:59.502Z,66.96
2022-07-30T09:24:59.483Z,66.87
2022-07-30T09:25:59.468Z,68.00
2022-07-30T09:27:00.380Z,68.56
2022-07-30T09:27:59.433Z,67.42
2022-07-30T09:28:59.946Z,67.48
2022-07-30T09:29:59.411Z,69.25
2022-07-30T09:30:59.380Z,66.91
2022-07-30T09:31:59.725Z,65.57
2022-07-30T09:32:59.344Z,69.19
2022-07-30T09:33:59.328Z,69.63
2022-07-30T09:34:59.310Z,68.50
2022-07-30T09:35:59.297Z,68.27
2022-07-30T09:36:59.303Z,68.39
2022-07-30T09:38:02.969Z,68.75
2022-07-30T09:39:01.239Z,65.49
2022-07-30T09:39:59.908Z,69.42
2022-07-30T09:41:04.878Z,69.08
2022-07-30T09:42:00.492Z,68.03
2022-07-30T09:42:59.201Z,68.72
2022-07-30T09:43:59.155Z,68.51
2022-07-30T09:44:59.138Z,68.50
2022-07-30T09:45:59.120Z,68.60
2022-07-30T09:46:59.133Z,69.23
2022-07-30T09:47:59.085Z,67.96
2022-07-30T09:48:59.087Z,69.04
2022-07-30T09:50:02.806Z,68.46
2022-07-30T09:51:00.034Z,67.18
2022-07-30T09:51:59.018Z,65.99
2022-07-30T09:52:59.030Z,67.88
2022-07-30T09:53:58.979Z,66.08
2022-07-30T09:54:59.943Z,69.20
2022-07-30T09:55:58.947Z,69.03
2022-07-30T09:56:58.932Z,69.33
2022-07-30T09:57:58.993Z,70.99
2022-07-30T09:58:58.892Z,69.15
2022-07-30T09:59:59.987Z,69.42
2022-07-30T10:01:00.432Z,69.49
2022-07-30T10:02:00.950Z,70.47
2022-07-30T10:02:58.847Z,68.06
2022-07-30T10:03:58.803Z,67.23
2022-07-30T10:04:58.789Z,67.85
2022-07-30T10:05:58.772Z,67.68
2022-07-30T10:06:58.752Z,65.89
2022-07-30T10:07:58.760Z,64.53
2022-07-30T10:08:58.715Z,65.68
2022-07-30T10:09:58.695Z,66.38
2022-07-30T10:10:58.675Z,67.95
2022-07-30T10:11:59.808Z,69.29
2022-07-30T10:12:58.671Z,69.76
2022-07-30T10:13:58.624Z,66.34
2022-07-30T10:14:58.608Z,65.94
2022-07-30T10:15:58.597Z,66.01
2022-07-30T10:16:58.571Z,63.40
2022-07-30T10:17:58.587Z,63.19
2022-07-30T10:18:58.538Z,65.69
2022-07-30T10:19:58.528Z,67.22
2022-07-30T10:20:58.506Z,68.79
2022-07-30T10:21:58.561Z,68.16
2022-07-30T10:22:58.493Z,67.66
2022-07-30T10:23:58.451Z,67.14
2022-07-30T10:24:58.433Z,65.39
2022-07-30T10:25:58.419Z,68.89
2022-07-30T10:26:58.475Z,68.98
2022-07-30T10:27:58.405Z,69.12
2022-07-30T10:28:58.360Z,68.46
2022-07-30T10:29:58.343Z,67.64
2022-07-30T10:30:58.327Z,66.47
2022-07-30T10:31:58.312Z,69.16
2022-07-30T10:32:58.324Z,69.75
2022-07-30T10:33:58.276Z,67.58
2022-07-30T10:34:58.257Z,68.49
2022-07-30T10:35:58.237Z,67.69
2022-07-30T10:36:58.218Z,68.08
2022-07-30T10:37:59.055Z,66.60
2022-07-30T10:38:58.182Z,66.48
2022-07-30T10:39:58.161Z,67.68
2022-07-30T10:40:58.148Z,68.16
2022-07-30T10:41:58.129Z,66.90
2022-07-30T10:42:58.140Z,65.68
2022-07-30T10:43:58.095Z,70.68
2022-07-30T10:44:58.076Z,70.84
2022-07-30T10:45:58.062Z,67.92
2022-07-30T10:46:59.418Z,67.38
2022-07-30T10:47:59.057Z,68.44
2022-07-30T10:48:58.077Z,70.04
2022-07-30T10:49:58.994Z,68.85
2022-07-30T10:50:57.976Z,70.95
2022-07-30T10:51:57.957Z,70.57
2022-07-30T10:52:57.967Z,69.48
2022-07-30T10:53:57.923Z,70.98
2022-07-30T10:54:57.905Z,69.02
2022-07-30T10:55:57.890Z,69.07
2022-07-30T10:56:57.870Z,69.83
2022-07-30T10:57:57.882Z,68.99
2022-07-30T10:58:57.832Z,68.73
2022-07-30T10:59:57.813Z,68.87
2022-07-30T11:00:57.795Z,69.49
2022-07-30T11:01:57.781Z,67.24
2022-07-30T11:02:57.793Z,67.49
2022-07-30T11:03:57.741Z,68.36
2022-07-30T11:04:57.722Z,68.60
2022-07-30T11:05:57.740Z,69.89
2022-07-30T11:06:57.687Z,68.07
2022-07-30T11:07:57.701Z,69.03
2022-07-30T11:08:58.131Z,66.12
2022-07-30T11:10:08.749Z,67.23
2022-07-30T11:10:58.615Z,65.41
2022-07-30T11:12:01.821Z,64.29
2022-07-30T11:12:58.618Z,66.55
2022-07-30T11:13:57.591Z,67.06
2022-07-30T11:14:57.554Z,66.43
2022-07-30T11:15:57.532Z,66.35
2022-07-30T11:16:57.515Z,68.37
2022-07-30T11:17:58.083Z,67.92
2022-07-30T11:19:27.220Z,69.69
2022-07-30T11:20:01.813Z,69.24
2022-07-30T11:20:57.447Z,69.17
2022-07-30T11:21:57.427Z,67.79
2022-07-30T11:22:57.435Z,66.74
2022-07-30T11:23:57.392Z,67.78
2022-07-30T11:24:57.369Z,68.15
2022-07-30T11:25:57.356Z,67.38
2022-07-30T11:26:57.334Z,64.89
2022-07-30T11:27:57.346Z,67.85
2022-07-30T11:28:57.314Z,66.77
2022-07-30T11:29:57.307Z,66.91
2022-07-30T11:30:57.267Z,69.19
2022-07-30T11:31:59.507Z,69.87
2022-07-30T11:32:57.260Z,67.92
2022-07-30T11:33:57.712Z,68.33
2022-07-30T11:34:57.196Z,68.51
2022-07-30T11:35:57.178Z,71.26
2022-07-30T11:36:57.161Z,70.61
2022-07-30T11:37:57.171Z,70.20
2022-07-30T11:39:00.088Z,70.49
2022-07-30T11:39:59.100Z,68.99
2022-07-30T11:40:57.084Z,68.77
2022-07-30T11:41:57.067Z,70.48
2022-07-30T11:42:57.072Z,70.97
2022-07-30T11:43:57.031Z,70.42
2022-07-30T11:45:00.951Z,69.07
2022-07-30T11:45:57.994Z,68.62
2022-07-30T11:46:56.977Z,69.46
2022-07-30T11:48:00.092Z,71.98
2022-07-30T11:48:57.115Z,69.83
2022-07-30T11:49:56.919Z,67.21
2022-07-30T11:51:00.743Z,69.28
2022-07-30T11:51:57.879Z,68.49
2022-07-30T11:52:56.888Z,68.26
2022-07-30T11:53:56.845Z,68.12
2022-07-30T11:54:56.827Z,68.45
2022-07-30T11:55:56.806Z,68.14
2022-07-30T11:57:00.731Z,69.23
2022-07-30T11:57:57.798Z,71.40
2022-07-30T11:58:56.752Z,71.70
2022-07-30T11:59:56.732Z,69.35
2022-07-30T12:00:56.723Z,68.52
2022-07-30T12:01:56.693Z,68.77
2022-07-30T12:02:59.843Z,68.27
2022-07-30T12:03:56.656Z,70.24
2022-07-30T12:04:56.636Z,70.03
2022-07-30T12:05:56.618Z,70.20
2022-07-30T12:06:56.601Z,68.81
2022-07-30T12:07:56.606Z,70.31
2022-07-30T12:08:58.802Z,71.31
2022-07-30T12:09:56.546Z,69.51
2022-07-30T12:10:56.528Z,68.61
2022-07-30T12:11:56.508Z,69.07
2022-07-30T12:12:56.515Z,70.50
2022-07-30T12:13:56.470Z,70.99
2022-07-30T12:15:01.571Z,67.36
2022-07-30T12:15:58.434Z,67.66
2022-07-30T12:16:56.417Z,64.37
2022-07-30T12:18:17.575Z,64.19
2022-07-30T12:18:58.385Z,66.47
2022-07-30T12:19:56.362Z,64.52
2022-07-30T12:20:57.624Z,65.05
2022-07-30T12:21:56.325Z,63.62
2022-07-30T12:22:56.343Z,63.78
2022-07-30T12:23:56.291Z,65.54
2022-07-30T12:24:56.274Z,63.11
2022-07-30T12:25:56.257Z,64.61
2022-07-30T12:26:56.234Z,61.15
2022-07-30T12:27:56.243Z,64.24
2022-07-30T12:28:56.203Z,63.74
2022-07-30T12:29:56.180Z,64.54
2022-07-30T12:30:56.165Z,63.50
2022-07-30T12:31:56.146Z,62.71
2022-07-30T12:32:56.156Z,61.44
2022-07-30T12:33:56.115Z,63.78
2022-07-30T12:34:56.091Z,61.31
2022-07-30T12:35:56.076Z,61.80
2022-07-30T12:36:56.055Z,61.29
2022-07-30T12:37:56.060Z,63.25
2022-07-30T12:38:56.012Z,63.59
2022-07-30T12:39:55.996Z,62.67
2022-07-30T12:40:55.979Z,63.14
2022-07-30T12:41:55.999Z,61.69
2022-07-30T12:42:55.946Z,63.45
2022-07-30T12:43:55.952Z,66.01
2022-07-30T12:44:55.905Z,65.50
2022-07-30T12:45:55.914Z,65.28
2022-07-30T12:46:55.870Z,65.09
2022-07-30T12:47:55.852Z,67.28
2022-07-30T12:48:55.942Z,67.33
2022-07-30T12:49:55.882Z,67.39
2022-07-30T12:50:55.825Z,68.03
2022-07-30T12:51:59.747Z,67.00